Fort Walton Beach, FL

11:56 PM CST on November 22, 2014 (GMT -0600)
Destin-Fort Walton Beach | Change Station
CLOSE
Current Station
Airport
Location: Destin,
Elevation: 23 ft
Nearby Weather Stations
Active Advisory: Coastal Hazard Statement

Elev 23 ft 30.39 °N, 86.47 °W | Updated 1 hour ago

Overcast
Overcast
63 °F
Feels Like 63 °F
N
7
Wind Variable Wind from East

Today
High -- | Low -- °F
--% Chance of Precip.
Yesterday
High -- | Low -- °F
Precip. -- in
6:18 AM 4:46 PM
New Moon, 1% visible
Pressure 30.02 in
Visibility 5.0 miles
Clouds Overcast 900 ft
Dew Point 61 °F
Humidity 93%
Rainfall 0.53 in
Snow Depth Not available.
UV 0 out of 12
Pollen 1.80 out of 12
Air Quality Not available.
Flu Activity Not available.
METAR KDTS 230453Z AUTO 09006KT 5SM +RA BR OVC009 17/16 A3002 RMK AO2 CIG 005V013 SLP165 P0005 T01720161 TSNO

More Conditions Fewer Conditions

Pressure 30.02 in
Visibility 5.0 miles
Clouds Overcast 900 ft
Dew Point 61 °F
Humidity 93%
Rainfall 0.53 in
Snow Depth Not available.
UV 0 out of 12
Pollen 1.80 out of 12
Air Quality Not available.
Flu Activity Not available.
METAR KDTS 230453Z AUTO 09006KT 5SM +RA BR OVC009 17/16 A3002 RMK AO2 CIG 005V013 SLP165 P0005 T01720161 TSNO

More Conditions Fewer Conditions

10-Day Weather Forecast

Almanac

Astronomy

Nov. 22, 2014 Rise Set
Actual Time
Civil Twilight
Nautical Twilight
Astronomical Twilight
Moon
Length of Visible Light
Length of Day
Tomorrow will be .
, % of the Moon is Illuminated

Today's Extremes

State Highs State Lows

Community

WunderPhotos

Upload Photos

1,773,017 photos uploaded!

WunderBlogs® & News

Nearby

Air Quality

  Air Quality AQ Index Pollutant
Not available.

Snow Depth

Station Depth Elevation

Earthquake Activity

City Distance Mag. Time & Date
Minimum magnitude displayed is 2.5.

Coastal Water Temperatures

Place Temperature

Nearby Weather Stations